Terminal Aerodrome Forecast
Issued by NWS

Home | Current Version | Previous Version | Graphics & Text | Print | Product List | Glossary On
Versions: 1 2 3 4 5 6 7 8 9 10 11 12 13
000
FTUS43 KBIS 200500
TAFMOT
TAF
KMOT 200526Z 2006/2106 27009KT P6SM SCT025
     FM201200 24003KT P6SM BKN030
     FM202100 17006KT P6SM SCT025
     FM210200 16008KT P6SM BKN030=

USA.gov is the U.S. government's official web portal to all federal, state and local government web resources and services.